sensor_id;sensor_type;location;lat;lon;timestamp;P1;durP1;ratioP1;P2;durP2;ratioP2
59907;SDS011;61804;54.926;73.496;2024-01-06T00:01:51;16.42;;;7.50;;
59907;SDS011;61804;54.926;73.496;2024-01-06T00:04:19;7.53;;;6.20;;
59907;SDS011;61804;54.926;73.496;2024-01-06T00:06:46;11.07;;;6.97;;
59907;SDS011;61804;54.926;73.496;2024-01-06T00:09:14;11.90;;;6.82;;
59907;SDS011;61804;54.926;73.496;2024-01-06T00:11:42;10.82;;;6.78;;
59907;SDS011;61804;54.926;73.496;2024-01-06T00:14:10;10.23;;;5.57;;
59907;SDS011;61804;54.926;73.496;2024-01-06T00:16:40;6.25;;;4.45;;
59907;SDS011;61804;54.926;73.496;2024-01-06T00:19:08;10.82;;;6.43;;
59907;SDS011;61804;54.926;73.496;2024-01-06T00:21:35;9.70;;;5.47;;
59907;SDS011;61804;54.926;73.496;2024-01-06T00:24:02;13.85;;;7.82;;
59907;SDS011;61804;54.926;73.496;2024-01-06T00:26:30;9.95;;;7.05;;
59907;SDS011;61804;54.926;73.496;2024-01-06T00:28:57;12.57;;;5.68;;
59907;SDS011;61804;54.926;73.496;2024-01-06T00:31:25;10.40;;;5.03;;
59907;SDS011;61804;54.926;73.496;2024-01-06T00:33:52;8.90;;;5.57;;
59907;SDS011;61804;54.926;73.496;2024-01-06T00:36:20;12.65;;;6.63;;
59907;SDS011;61804;54.926;73.496;2024-01-06T00:38:48;11.02;;;5.35;;
59907;SDS011;61804;54.926;73.496;2024-01-06T00:41:16;6.80;;;5.05;;
59907;SDS011;61804;54.926;73.496;2024-01-06T00:43:44;8.98;;;6.13;;
59907;SDS011;61804;54.926;73.496;2024-01-06T00:46:12;11.73;;;6.38;;
59907;SDS011;61804;54.926;73.496;2024-01-06T00:48:40;9.32;;;6.05;;
59907;SDS011;61804;54.926;73.496;2024-01-06T00:51:08;7.28;;;4.68;;
59907;SDS011;61804;54.926;73.496;2024-01-06T00:53:35;20.50;;;10.43;;
59907;SDS011;61804;54.926;73.496;2024-01-06T00:56:03;24.00;;;10.23;;
59907;SDS011;61804;54.926;73.496;2024-01-06T00:58:31;32.92;;;17.23;;
59907;SDS011;61804;54.926;73.496;2024-01-06T01:00:58;32.20;;;19.30;;
59907;SDS011;61804;54.926;73.496;2024-01-06T01:03:25;11.27;;;6.70;;
59907;SDS011;61804;54.926;73.496;2024-01-06T01:05:54;30.17;;;14.57;;
59907;SDS011;61804;54.926;73.496;2024-01-06T01:08:22;9.48;;;6.88;;
59907;SDS011;61804;54.926;73.496;2024-01-06T01:10:50;29.52;;;15.02;;
59907;SDS011;61804;54.926;73.496;2024-01-06T01:13:18;18.42;;;12.35;;
59907;SDS011;61804;54.926;73.496;2024-01-06T01:15:45;9.10;;;6.57;;
59907;SDS011;61804;54.926;73.496;2024-01-06T01:18:13;25.85;;;9.65;;
59907;SDS011;61804;54.926;73.496;2024-01-06T01:20:42;10.80;;;7.25;;
59907;SDS011;61804;54.926;73.496;2024-01-06T01:23:10;14.48;;;9.27;;
59907;SDS011;61804;54.926;73.496;2024-01-06T01:25:38;11.82;;;7.18;;
59907;SDS011;61804;54.926;73.496;2024-01-06T01:28:06;24.08;;;6.15;;
59907;SDS011;61804;54.926;73.496;2024-01-06T01:30:36;9.23;;;6.28;;
59907;SDS011;61804;54.926;73.496;2024-01-06T01:33:04;10.65;;;6.28;;
59907;SDS011;61804;54.926;73.496;2024-01-06T01:35:32;14.98;;;9.57;;
59907;SDS011;61804;54.926;73.496;2024-01-06T01:38:00;12.98;;;6.43;;
59907;SDS011;61804;54.926;73.496;2024-01-06T01:40:28;15.15;;;9.23;;
59907;SDS011;61804;54.926;73.496;2024-01-06T01:42:55;24.38;;;12.25;;
59907;SDS011;61804;54.926;73.496;2024-01-06T01:45:23;12.57;;;6.00;;
59907;SDS011;61804;54.926;73.496;2024-01-06T01:47:51;13.40;;;6.85;;
59907;SDS011;61804;54.926;73.496;2024-01-06T01:50:19;13.90;;;4.25;;
59907;SDS011;61804;54.926;73.496;2024-01-06T01:52:49;17.67;;;12.45;;
59907;SDS011;61804;54.926;73.496;2024-01-06T01:55:18;11.65;;;7.32;;
59907;SDS011;61804;54.926;73.496;2024-01-06T01:57:45;17.05;;;7.43;;
59907;SDS011;61804;54.926;73.496;2024-01-06T02:00:13;18.05;;;7.93;;
59907;SDS011;61804;54.926;73.496;2024-01-06T02:02:40;12.90;;;8.13;;
59907;SDS011;61804;54.926;73.496;2024-01-06T02:05:08;7.85;;;5.65;;
59907;SDS011;61804;54.926;73.496;2024-01-06T02:07:36;13.77;;;7.30;;
59907;SDS011;61804;54.926;73.496;2024-01-06T02:10:05;9.88;;;7.65;;
59907;SDS011;61804;54.926;73.496;2024-01-06T02:12:33;12.45;;;6.57;;
59907;SDS011;61804;54.926;73.496;2024-01-06T02:15:00;19.80;;;7.40;;
59907;SDS011;61804;54.926;73.496;2024-01-06T02:17:28;13.90;;;7.78;;
59907;SDS011;61804;54.926;73.496;2024-01-06T02:19:56;6.82;;;4.65;;
59907;SDS011;61804;54.926;73.496;2024-01-06T02:22:23;8.43;;;5.68;;
59907;SDS011;61804;54.926;73.496;2024-01-06T02:24:51;8.15;;;5.80;;
59907;SDS011;61804;54.926;73.496;2024-01-06T02:27:18;12.43;;;5.63;;
59907;SDS011;61804;54.926;73.496;2024-01-06T02:29:47;10.18;;;6.63;;
59907;SDS011;61804;54.926;73.496;2024-01-06T02:32:14;13.00;;;6.93;;
59907;SDS011;61804;54.926;73.496;2024-01-06T02:34:42;13.27;;;7.07;;
59907;SDS011;61804;54.926;73.496;2024-01-06T02:37:10;15.25;;;6.72;;
59907;SDS011;61804;54.926;73.496;2024-01-06T02:39:38;32.47;;;10.38;;
59907;SDS011;61804;54.926;73.496;2024-01-06T02:42:06;15.55;;;8.10;;
59907;SDS011;61804;54.926;73.496;2024-01-06T02:44:34;17.08;;;9.05;;
59907;SDS011;61804;54.926;73.496;2024-01-06T02:47:02;13.80;;;6.60;;
59907;SDS011;61804;54.926;73.496;2024-01-06T02:49:29;14.65;;;7.43;;
59907;SDS011;61804;54.926;73.496;2024-01-06T02:51:58;8.77;;;5.78;;
59907;SDS011;61804;54.926;73.496;2024-01-06T02:54:25;13.38;;;8.07;;
59907;SDS011;61804;54.926;73.496;2024-01-06T02:56:53;14.68;;;7.80;;
59907;SDS011;61804;54.926;73.496;2024-01-06T02:59:20;11.85;;;5.82;;
59907;SDS011;61804;54.926;73.496;2024-01-06T03:01:49;11.35;;;6.47;;
59907;SDS011;61804;54.926;73.496;2024-01-06T03:04:17;11.10;;;7.97;;
59907;SDS011;61804;54.926;73.496;2024-01-06T03:06:45;13.57;;;7.82;;
59907;SDS011;61804;54.926;73.496;2024-01-06T03:09:19;21.08;;;9.32;;
59907;SDS011;61804;54.926;73.496;2024-01-06T03:11:47;16.02;;;8.70;;
59907;SDS011;61804;54.926;73.496;2024-01-06T03:14:15;17.08;;;9.50;;
59907;SDS011;61804;54.926;73.496;2024-01-06T03:16:43;12.57;;;8.82;;
59907;SDS011;61804;54.926;73.496;2024-01-06T03:19:12;19.67;;;9.18;;
59907;SDS011;61804;54.926;73.496;2024-01-06T03:21:40;23.23;;;9.63;;
59907;SDS011;61804;54.926;73.496;2024-01-06T03:24:08;21.77;;;10.63;;
59907;SDS011;61804;54.926;73.496;2024-01-06T03:26:38;34.63;;;18.67;;
59907;SDS011;61804;54.926;73.496;2024-01-06T03:29:06;42.45;;;20.25;;
59907;SDS011;61804;54.926;73.496;2024-01-06T03:31:33;29.77;;;14.07;;
59907;SDS011;61804;54.926;73.496;2024-01-06T03:34:01;21.73;;;11.88;;
59907;SDS011;61804;54.926;73.496;2024-01-06T03:36:29;20.38;;;9.05;;
59907;SDS011;61804;54.926;73.496;2024-01-06T03:38:57;21.38;;;12.18;;
59907;SDS011;61804;54.926;73.496;2024-01-06T03:41:25;22.08;;;10.73;;
59907;SDS011;61804;54.926;73.496;2024-01-06T03:43:52;22.48;;;13.80;;
59907;SDS011;61804;54.926;73.496;2024-01-06T03:46:23;28.35;;;10.77;;
59907;SDS011;61804;54.926;73.496;2024-01-06T03:48:50;12.13;;;8.52;;
59907;SDS011;61804;54.926;73.496;2024-01-06T03:51:19;17.80;;;11.57;;
59907;SDS011;61804;54.926;73.496;2024-01-06T03:53:46;21.63;;;11.07;;
59907;SDS011;61804;54.926;73.496;2024-01-06T03:56:15;20.00;;;11.23;;
59907;SDS011;61804;54.926;73.496;2024-01-06T03:58:42;15.25;;;10.48;;
59907;SDS011;61804;54.926;73.496;2024-01-06T04:01:10;20.38;;;10.60;;
59907;SDS011;61804;54.926;73.496;2024-01-06T04:03:38;23.00;;;9.93;;
59907;SDS011;61804;54.926;73.496;2024-01-06T04:06:07;20.65;;;12.38;;
59907;SDS011;61804;54.926;73.496;2024-01-06T04:08:35;21.48;;;12.00;;
59907;SDS011;61804;54.926;73.496;2024-01-06T04:11:03;23.23;;;12.80;;
59907;SDS011;61804;54.926;73.496;2024-01-06T04:13:31;31.77;;;13.63;;
59907;SDS011;61804;54.926;73.496;2024-01-06T04:15:59;25.60;;;14.00;;
59907;SDS011;61804;54.926;73.496;2024-01-06T04:18:27;18.48;;;11.43;;
59907;SDS011;61804;54.926;73.496;2024-01-06T04:20:55;22.23;;;11.25;;
59907;SDS011;61804;54.926;73.496;2024-01-06T04:23:22;24.50;;;16.52;;
59907;SDS011;61804;54.926;73.496;2024-01-06T04:25:50;22.58;;;13.93;;
59907;SDS011;61804;54.926;73.496;2024-01-06T04:28:18;21.00;;;12.10;;
59907;SDS011;61804;54.926;73.496;2024-01-06T04:30:46;25.75;;;10.32;;
59907;SDS011;61804;54.926;73.496;2024-01-06T04:33:13;20.02;;;12.20;;
59907;SDS011;61804;54.926;73.496;2024-01-06T04:35:41;22.63;;;15.30;;
59907;SDS011;61804;54.926;73.496;2024-01-06T04:38:10;24.83;;;15.38;;
59907;SDS011;61804;54.926;73.496;2024-01-06T04:40:38;29.50;;;17.65;;
59907;SDS011;61804;54.926;73.496;2024-01-06T04:43:05;25.73;;;15.98;;
59907;SDS011;61804;54.926;73.496;2024-01-06T04:45:34;26.25;;;14.65;;
59907;SDS011;61804;54.926;73.496;2024-01-06T04:48:01;26.65;;;18.58;;
59907;SDS011;61804;54.926;73.496;2024-01-06T04:50:30;27.45;;;16.10;;
59907;SDS011;61804;54.926;73.496;2024-01-06T04:52:58;22.88;;;14.52;;
59907;SDS011;61804;54.926;73.496;2024-01-06T04:55:26;37.58;;;20.85;;
59907;SDS011;61804;54.926;73.496;2024-01-06T04:57:55;20.67;;;15.40;;
59907;SDS011;61804;54.926;73.496;2024-01-06T05:00:22;36.45;;;19.00;;
59907;SDS011;61804;54.926;73.496;2024-01-06T05:02:50;22.00;;;14.10;;
59907;SDS011;61804;54.926;73.496;2024-01-06T05:05:17;20.50;;;10.80;;
59907;SDS011;61804;54.926;73.496;2024-01-06T05:07:46;22.92;;;12.30;;
59907;SDS011;61804;54.926;73.496;2024-01-06T05:10:13;24.92;;;15.60;;
59907;SDS011;61804;54.926;73.496;2024-01-06T05:12:42;25.60;;;16.98;;
59907;SDS011;61804;54.926;73.496;2024-01-06T05:15:10;18.15;;;14.35;;
59907;SDS011;61804;54.926;73.496;2024-01-06T05:17:38;20.63;;;13.68;;
59907;SDS011;61804;54.926;73.496;2024-01-06T05:20:06;16.92;;;13.73;;
59907;SDS011;61804;54.926;73.496;2024-01-06T05:22:34;26.98;;;18.17;;
59907;SDS011;61804;54.926;73.496;2024-01-06T05:25:02;16.40;;;12.40;;
59907;SDS011;61804;54.926;73.496;2024-01-06T05:27:30;27.42;;;18.40;;
59907;SDS011;61804;54.926;73.496;2024-01-06T05:29:58;21.25;;;16.70;;
59907;SDS011;61804;54.926;73.496;2024-01-06T05:32:27;23.25;;;19.63;;
59907;SDS011;61804;54.926;73.496;2024-01-06T05:34:55;43.25;;;28.23;;
59907;SDS011;61804;54.926;73.496;2024-01-06T05:37:31;44.50;;;26.98;;
59907;SDS011;61804;54.926;73.496;2024-01-06T05:40:00;56.17;;;36.45;;
59907;SDS011;61804;54.926;73.496;2024-01-06T05:42:30;29.73;;;21.73;;
59907;SDS011;61804;54.926;73.496;2024-01-06T05:44:58;34.88;;;21.40;;
59907;SDS011;61804;54.926;73.496;2024-01-06T05:47:28;26.15;;;16.42;;
59907;SDS011;61804;54.926;73.496;2024-01-06T05:49:55;33.78;;;24.90;;
59907;SDS011;61804;54.926;73.496;2024-01-06T05:52:22;29.10;;;19.85;;
59907;SDS011;61804;54.926;73.496;2024-01-06T05:54:50;35.10;;;21.13;;
59907;SDS011;61804;54.926;73.496;2024-01-06T05:57:21;26.80;;;19.35;;
59907;SDS011;61804;54.926;73.496;2024-01-06T05:59:48;20.88;;;17.40;;
59907;SDS011;61804;54.926;73.496;2024-01-06T06:02:16;41.83;;;26.88;;
59907;SDS011;61804;54.926;73.496;2024-01-06T06:04:43;26.00;;;19.13;;
59907;SDS011;61804;54.926;73.496;2024-01-06T06:07:11;22.10;;;14.57;;
59907;SDS011;61804;54.926;73.496;2024-01-06T06:09:38;28.70;;;19.35;;
59907;SDS011;61804;54.926;73.496;2024-01-06T06:12:07;30.80;;;16.05;;
59907;SDS011;61804;54.926;73.496;2024-01-06T06:14:34;20.95;;;13.95;;
59907;SDS011;61804;54.926;73.496;2024-01-06T06:17:02;32.50;;;19.77;;
59907;SDS011;61804;54.926;73.496;2024-01-06T06:19:30;15.95;;;12.32;;
59907;SDS011;61804;54.926;73.496;2024-01-06T06:21:58;15.48;;;10.73;;
59907;SDS011;61804;54.926;73.496;2024-01-06T06:24:25;23.10;;;13.38;;
59907;SDS011;61804;54.926;73.496;2024-01-06T06:26:52;21.40;;;11.90;;
59907;SDS011;61804;54.926;73.496;2024-01-06T06:29:19;21.60;;;13.73;;
59907;SDS011;61804;54.926;73.496;2024-01-06T06:31:47;24.88;;;11.07;;
59907;SDS011;61804;54.926;73.496;2024-01-06T06:34:15;54.03;;;27.98;;
59907;SDS011;61804;54.926;73.496;2024-01-06T06:36:43;46.60;;;27.70;;
59907;SDS011;61804;54.926;73.496;2024-01-06T06:39:10;38.60;;;20.13;;
59907;SDS011;61804;54.926;73.496;2024-01-06T06:41:38;30.15;;;21.23;;
59907;SDS011;61804;54.926;73.496;2024-01-06T06:44:05;16.40;;;14.20;;
59907;SDS011;61804;54.926;73.496;2024-01-06T06:46:32;16.55;;;11.73;;
59907;SDS011;61804;54.926;73.496;2024-01-06T06:48:59;15.52;;;10.20;;
59907;SDS011;61804;54.926;73.496;2024-01-06T06:51:27;10.27;;;8.65;;
59907;SDS011;61804;54.926;73.496;2024-01-06T06:53:54;15.55;;;12.50;;
59907;SDS011;61804;54.926;73.496;2024-01-06T06:56:24;16.15;;;10.20;;
59907;SDS011;61804;54.926;73.496;2024-01-06T06:58:51;17.02;;;9.23;;
59907;SDS011;61804;54.926;73.496;2024-01-06T07:01:20;12.93;;;6.60;;
59907;SDS011;61804;54.926;73.496;2024-01-06T07:03:48;10.30;;;7.60;;
59907;SDS011;61804;54.926;73.496;2024-01-06T07:06:16;12.73;;;8.02;;
59907;SDS011;61804;54.926;73.496;2024-01-06T07:08:44;13.18;;;7.90;;
59907;SDS011;61804;54.926;73.496;2024-01-06T07:11:12;14.30;;;10.63;;
59907;SDS011;61804;54.926;73.496;2024-01-06T07:13:42;11.80;;;10.43;;
59907;SDS011;61804;54.926;73.496;2024-01-06T07:16:10;23.88;;;15.05;;
59907;SDS011;61804;54.926;73.496;2024-01-06T07:18:38;10.88;;;7.93;;
59907;SDS011;61804;54.926;73.496;2024-01-06T07:21:06;18.20;;;12.65;;
59907;SDS011;61804;54.926;73.496;2024-01-06T07:23:35;13.57;;;11.90;;
59907;SDS011;61804;54.926;73.496;2024-01-06T07:26:04;10.07;;;6.38;;
59907;SDS011;61804;54.926;73.496;2024-01-06T07:28:32;10.88;;;9.77;;
59907;SDS011;61804;54.926;73.496;2024-01-06T07:31:00;12.77;;;9.93;;
59907;SDS011;61804;54.926;73.496;2024-01-06T07:33:27;16.08;;;10.80;;
59907;SDS011;61804;54.926;73.496;2024-01-06T07:35:56;10.57;;;8.50;;
59907;SDS011;61804;54.926;73.496;2024-01-06T07:38:23;11.55;;;6.28;;
59907;SDS011;61804;54.926;73.496;2024-01-06T07:40:51;7.03;;;5.95;;
59907;SDS011;61804;54.926;73.496;2024-01-06T07:43:22;11.77;;;7.03;;
59907;SDS011;61804;54.926;73.496;2024-01-06T07:45:50;7.93;;;5.30;;
59907;SDS011;61804;54.926;73.496;2024-01-06T07:48:18;6.88;;;5.90;;
59907;SDS011;61804;54.926;73.496;2024-01-06T07:50:47;10.25;;;7.88;;
59907;SDS011;61804;54.926;73.496;2024-01-06T07:53:15;15.70;;;7.90;;
59907;SDS011;61804;54.926;73.496;2024-01-06T07:55:42;8.07;;;7.03;;
59907;SDS011;61804;54.926;73.496;2024-01-06T07:58:10;12.27;;;7.63;;
59907;SDS011;61804;54.926;73.496;2024-01-06T08:00:38;9.75;;;6.38;;
59907;SDS011;61804;54.926;73.496;2024-01-06T08:03:06;9.63;;;6.63;;
59907;SDS011;61804;54.926;73.496;2024-01-06T08:05:34;8.90;;;7.22;;
59907;SDS011;61804;54.926;73.496;2024-01-06T08:08:02;12.50;;;5.63;;
59907;SDS011;61804;54.926;73.496;2024-01-06T08:10:30;9.55;;;7.30;;
59907;SDS011;61804;54.926;73.496;2024-01-06T08:12:58;15.82;;;9.35;;
59907;SDS011;61804;54.926;73.496;2024-01-06T08:15:25;14.43;;;7.53;;
59907;SDS011;61804;54.926;73.496;2024-01-06T08:17:53;9.55;;;6.85;;
59907;SDS011;61804;54.926;73.496;2024-01-06T08:20:21;10.65;;;7.72;;
59907;SDS011;61804;54.926;73.496;2024-01-06T08:22:49;10.13;;;7.20;;
59907;SDS011;61804;54.926;73.496;2024-01-06T08:25:16;11.95;;;6.97;;
59907;SDS011;61804;54.926;73.496;2024-01-06T08:27:44;8.20;;;5.30;;
59907;SDS011;61804;54.926;73.496;2024-01-06T08:30:12;10.60;;;6.10;;
59907;SDS011;61804;54.926;73.496;2024-01-06T08:32:40;6.80;;;5.65;;
59907;SDS011;61804;54.926;73.496;2024-01-06T08:35:09;8.65;;;5.85;;
59907;SDS011;61804;54.926;73.496;2024-01-06T08:37:37;15.32;;;8.57;;
59907;SDS011;61804;54.926;73.496;2024-01-06T08:40:05;8.00;;;6.75;;
59907;SDS011;61804;54.926;73.496;2024-01-06T08:42:33;14.82;;;6.30;;
59907;SDS011;61804;54.926;73.496;2024-01-06T08:45:00;10.23;;;9.23;;
59907;SDS011;61804;54.926;73.496;2024-01-06T08:47:29;9.60;;;6.25;;
59907;SDS011;61804;54.926;73.496;2024-01-06T08:49:57;9.15;;;6.60;;
59907;SDS011;61804;54.926;73.496;2024-01-06T08:52:25;17.45;;;9.77;;
59907;SDS011;61804;54.926;73.496;2024-01-06T08:54:52;9.25;;;7.75;;
59907;SDS011;61804;54.926;73.496;2024-01-06T08:57:21;13.02;;;7.18;;
59907;SDS011;61804;54.926;73.496;2024-01-06T08:59:49;11.57;;;8.38;;
59907;SDS011;61804;54.926;73.496;2024-01-06T09:02:17;8.98;;;8.00;;
59907;SDS011;61804;54.926;73.496;2024-01-06T09:04:45;16.40;;;8.23;;
59907;SDS011;61804;54.926;73.496;2024-01-06T09:07:13;16.70;;;11.48;;
59907;SDS011;61804;54.926;73.496;2024-01-06T09:09:41;14.68;;;8.10;;
59907;SDS011;61804;54.926;73.496;2024-01-06T09:12:09;15.57;;;8.70;;
59907;SDS011;61804;54.926;73.496;2024-01-06T09:14:37;13.77;;;9.85;;
59907;SDS011;61804;54.926;73.496;2024-01-06T09:17:04;7.63;;;5.70;;
59907;SDS011;61804;54.926;73.496;2024-01-06T09:19:33;12.30;;;7.53;;
59907;SDS011;61804;54.926;73.496;2024-01-06T09:22:03;8.23;;;6.32;;
59907;SDS011;61804;54.926;73.496;2024-01-06T09:24:32;10.70;;;8.10;;
59907;SDS011;61804;54.926;73.496;2024-01-06T09:27:02;14.65;;;8.20;;
59907;SDS011;61804;54.926;73.496;2024-01-06T09:29:31;12.50;;;9.15;;
59907;SDS011;61804;54.926;73.496;2024-01-06T09:31:59;9.20;;;5.20;;
59907;SDS011;61804;54.926;73.496;2024-01-06T09:34:27;13.50;;;7.78;;
59907;SDS011;61804;54.926;73.496;2024-01-06T09:36:54;13.63;;;8.38;;
59907;SDS011;61804;54.926;73.496;2024-01-06T09:39:22;8.65;;;6.35;;
59907;SDS011;61804;54.926;73.496;2024-01-06T09:41:50;10.55;;;7.63;;
59907;SDS011;61804;54.926;73.496;2024-01-06T09:44:18;11.23;;;5.28;;
59907;SDS011;61804;54.926;73.496;2024-01-06T09:46:45;10.63;;;5.32;;
59907;SDS011;61804;54.926;73.496;2024-01-06T09:49:16;8.40;;;5.43;;
59907;SDS011;61804;54.926;73.496;2024-01-06T09:51:44;16.15;;;12.25;;
59907;SDS011;61804;54.926;73.496;2024-01-06T09:54:19;33.95;;;19.95;;
59907;SDS011;61804;54.926;73.496;2024-01-06T09:56:49;18.35;;;11.10;;
59907;SDS011;61804;54.926;73.496;2024-01-06T09:59:20;15.20;;;8.38;;
59907;SDS011;61804;54.926;73.496;2024-01-06T10:01:48;9.60;;;6.35;;
59907;SDS011;61804;54.926;73.496;2024-01-06T10:04:16;7.40;;;4.95;;
59907;SDS011;61804;54.926;73.496;2024-01-06T10:06:43;9.05;;;5.70;;
59907;SDS011;61804;54.926;73.496;2024-01-06T10:09:11;8.95;;;5.35;;
59907;SDS011;61804;54.926;73.496;2024-01-06T10:11:40;8.35;;;5.15;;
59907;SDS011;61804;54.926;73.496;2024-01-06T10:14:08;11.85;;;7.25;;
59907;SDS011;61804;54.926;73.496;2024-01-06T10:16:37;7.18;;;5.60;;
59907;SDS011;61804;54.926;73.496;2024-01-06T10:19:06;12.27;;;7.13;;
59907;SDS011;61804;54.926;73.496;2024-01-06T10:21:34;9.18;;;6.80;;
59907;SDS011;61804;54.926;73.496;2024-01-06T10:24:02;18.25;;;7.28;;
59907;SDS011;61804;54.926;73.496;2024-01-06T10:26:30;12.20;;;6.88;;
59907;SDS011;61804;54.926;73.496;2024-01-06T10:28:58;14.02;;;6.90;;
59907;SDS011;61804;54.926;73.496;2024-01-06T10:31:25;15.90;;;7.47;;
59907;SDS011;61804;54.926;73.496;2024-01-06T10:33:54;25.67;;;11.45;;
59907;SDS011;61804;54.926;73.496;2024-01-06T10:36:23;14.52;;;10.35;;
59907;SDS011;61804;54.926;73.496;2024-01-06T10:38:52;26.65;;;15.88;;
59907;SDS011;61804;54.926;73.496;2024-01-06T10:41:19;56.45;;;34.22;;
59907;SDS011;61804;54.926;73.496;2024-01-06T10:43:47;94.80;;;59.75;;
59907;SDS011;61804;54.926;73.496;2024-01-06T10:46:15;23.65;;;19.50;;
59907;SDS011;61804;54.926;73.496;2024-01-06T10:48:45;39.65;;;20.98;;
59907;SDS011;61804;54.926;73.496;2024-01-06T10:51:13;43.45;;;18.73;;
59907;SDS011;61804;54.926;73.496;2024-01-06T10:53:41;25.98;;;11.45;;
59907;SDS011;61804;54.926;73.496;2024-01-06T10:56:10;39.10;;;17.33;;
59907;SDS011;61804;54.926;73.496;2024-01-06T10:58:47;19.80;;;12.82;;
59907;SDS011;61804;54.926;73.496;2024-01-06T11:01:19;22.65;;;12.35;;
59907;SDS011;61804;54.926;73.496;2024-01-06T11:03:48;23.35;;;16.23;;
59907;SDS011;61804;54.926;73.496;2024-01-06T11:06:18;26.08;;;15.32;;
59907;SDS011;61804;54.926;73.496;2024-01-06T11:08:49;24.17;;;13.70;;
59907;SDS011;61804;54.926;73.496;2024-01-06T11:11:18;14.65;;;9.75;;
59907;SDS011;61804;54.926;73.496;2024-01-06T11:13:46;24.45;;;10.98;;
59907;SDS011;61804;54.926;73.496;2024-01-06T11:16:34;22.27;;;13.07;;
59907;SDS011;61804;54.926;73.496;2024-01-06T11:19:03;23.75;;;15.00;;
59907;SDS011;61804;54.926;73.496;2024-01-06T11:21:51;18.38;;;10.20;;
59907;SDS011;61804;54.926;73.496;2024-01-06T11:24:19;14.88;;;9.95;;
59907;SDS011;61804;54.926;73.496;2024-01-06T11:26:52;18.05;;;12.10;;
59907;SDS011;61804;54.926;73.496;2024-01-06T11:29:20;32.25;;;13.38;;
59907;SDS011;61804;54.926;73.496;2024-01-06T11:34:36;21.92;;;12.48;;
59907;SDS011;61804;54.926;73.496;2024-01-06T11:37:04;20.88;;;12.85;;
59907;SDS011;61804;54.926;73.496;2024-01-06T11:39:36;32.58;;;17.27;;
59907;SDS011;61804;54.926;73.496;2024-01-06T11:42:05;20.42;;;12.65;;
59907;SDS011;61804;54.926;73.496;2024-01-06T11:44:39;26.42;;;11.27;;
59907;SDS011;61804;54.926;73.496;2024-01-06T11:47:07;42.45;;;25.35;;
59907;SDS011;61804;54.926;73.496;2024-01-06T11:49:36;32.97;;;21.13;;
59907;SDS011;61804;54.926;73.496;2024-01-06T11:52:04;26.67;;;16.23;;
59907;SDS011;61804;54.926;73.496;2024-01-06T11:54:32;23.70;;;15.73;;
59907;SDS011;61804;54.926;73.496;2024-01-06T11:57:00;18.20;;;12.30;;
59907;SDS011;61804;54.926;73.496;2024-01-06T11:59:27;19.25;;;13.13;;
59907;SDS011;61804;54.926;73.496;2024-01-06T12:01:55;37.13;;;22.77;;
59907;SDS011;61804;54.926;73.496;2024-01-06T12:04:22;23.60;;;17.80;;
59907;SDS011;61804;54.926;73.496;2024-01-06T12:06:53;18.88;;;13.88;;
59907;SDS011;61804;54.926;73.496;2024-01-06T12:09:21;19.27;;;13.52;;
59907;SDS011;61804;54.926;73.496;2024-01-06T12:12:00;16.23;;;10.63;;
59907;SDS011;61804;54.926;73.496;2024-01-06T12:14:28;22.55;;;11.32;;
59907;SDS011;61804;54.926;73.496;2024-01-06T12:16:56;11.60;;;6.85;;
59907;SDS011;61804;54.926;73.496;2024-01-06T12:19:29;8.18;;;6.65;;
59907;SDS011;61804;54.926;73.496;2024-01-06T12:21:57;15.10;;;10.18;;
59907;SDS011;61804;54.926;73.496;2024-01-06T12:24:35;11.68;;;6.47;;
59907;SDS011;61804;54.926;73.496;2024-01-06T12:27:08;19.65;;;10.05;;
59907;SDS011;61804;54.926;73.496;2024-01-06T12:29:38;19.88;;;13.00;;
59907;SDS011;61804;54.926;73.496;2024-01-06T12:32:07;26.35;;;16.13;;
59907;SDS011;61804;54.926;73.496;2024-01-06T12:34:36;21.08;;;14.13;;
59907;SDS011;61804;54.926;73.496;2024-01-06T12:37:09;24.27;;;16.15;;
59907;SDS011;61804;54.926;73.496;2024-01-06T12:39:36;42.72;;;24.02;;
59907;SDS011;61804;54.926;73.496;2024-01-06T12:42:04;36.25;;;23.58;;
59907;SDS011;61804;54.926;73.496;2024-01-06T12:44:49;48.97;;;30.77;;
59907;SDS011;61804;54.926;73.496;2024-01-06T12:47:17;44.63;;;29.17;;
59907;SDS011;61804;54.926;73.496;2024-01-06T12:50:05;40.83;;;25.30;;
59907;SDS011;61804;54.926;73.496;2024-01-06T12:52:34;57.70;;;32.55;;
59907;SDS011;61804;54.926;73.496;2024-01-06T12:55:03;60.83;;;34.05;;
59907;SDS011;61804;54.926;73.496;2024-01-06T12:57:55;44.85;;;26.60;;
59907;SDS011;61804;54.926;73.496;2024-01-06T13:00:23;47.70;;;30.23;;
59907;SDS011;61804;54.926;73.496;2024-01-06T13:03:20;45.78;;;26.60;;
59907;SDS011;61804;54.926;73.496;2024-01-06T13:05:48;68.25;;;38.75;;
59907;SDS011;61804;54.926;73.496;2024-01-06T13:08:19;75.45;;;41.28;;
59907;SDS011;61804;54.926;73.496;2024-01-06T13:10:47;66.13;;;41.50;;
59907;SDS011;61804;54.926;73.496;2024-01-06T13:13:14;61.00;;;38.95;;
59907;SDS011;61804;54.926;73.496;2024-01-06T13:15:44;60.80;;;37.38;;
59907;SDS011;61804;54.926;73.496;2024-01-06T13:18:12;53.95;;;36.35;;
59907;SDS011;61804;54.926;73.496;2024-01-06T13:20:44;42.70;;;31.20;;
59907;SDS011;61804;54.926;73.496;2024-01-06T13:23:12;52.47;;;28.73;;
59907;SDS011;61804;54.926;73.496;2024-01-06T13:25:41;53.10;;;31.17;;
59907;SDS011;61804;54.926;73.496;2024-01-06T13:28:09;49.58;;;28.58;;
59907;SDS011;61804;54.926;73.496;2024-01-06T13:30:36;37.95;;;20.67;;
59907;SDS011;61804;54.926;73.496;2024-01-06T13:33:16;48.00;;;25.15;;
59907;SDS011;61804;54.926;73.496;2024-01-06T13:35:44;49.03;;;28.38;;
59907;SDS011;61804;54.926;73.496;2024-01-06T13:38:15;42.78;;;25.95;;
59907;SDS011;61804;54.926;73.496;2024-01-06T13:40:44;45.40;;;24.48;;
59907;SDS011;61804;54.926;73.496;2024-01-06T13:43:13;30.08;;;19.73;;
59907;SDS011;61804;54.926;73.496;2024-01-06T13:45:43;33.03;;;20.38;;
59907;SDS011;61804;54.926;73.496;2024-01-06T13:48:24;26.25;;;18.98;;
59907;SDS011;61804;54.926;73.496;2024-01-06T13:51:11;36.17;;;23.13;;
59907;SDS011;61804;54.926;73.496;2024-01-06T13:53:52;69.95;;;38.80;;
59907;SDS011;61804;54.926;73.496;2024-01-06T13:56:21;108.22;;;55.85;;
59907;SDS011;61804;54.926;73.496;2024-01-06T13:58:49;83.95;;;43.83;;
59907;SDS011;61804;54.926;73.496;2024-01-06T14:01:18;107.40;;;57.78;;
59907;SDS011;61804;54.926;73.496;2024-01-06T14:03:45;73.45;;;44.38;;
59907;SDS011;61804;54.926;73.496;2024-01-06T14:06:13;56.85;;;30.73;;
59907;SDS011;61804;54.926;73.496;2024-01-06T14:08:40;32.05;;;20.27;;
59907;SDS011;61804;54.926;73.496;2024-01-06T14:11:08;29.70;;;17.55;;
59907;SDS011;61804;54.926;73.496;2024-01-06T14:13:37;32.85;;;17.92;;
59907;SDS011;61804;54.926;73.496;2024-01-06T14:16:04;31.45;;;17.10;;
59907;SDS011;61804;54.926;73.496;2024-01-06T14:18:31;23.42;;;14.02;;
59907;SDS011;61804;54.926;73.496;2024-01-06T14:21:02;31.20;;;18.08;;
59907;SDS011;61804;54.926;73.496;2024-01-06T14:23:29;24.00;;;13.50;;
59907;SDS011;61804;54.926;73.496;2024-01-06T14:25:59;26.95;;;15.38;;
59907;SDS011;61804;54.926;73.496;2024-01-06T14:28:26;22.67;;;14.52;;